sensor_id;sensor_type;location;lat;lon;timestamp;P1;durP1;ratioP1;P2;durP2;ratioP2
19251;SDS011;9760;50.944;5.304;2022-10-31T00:00:28;25.83;;;13.63;;
19251;SDS011;9760;50.944;5.304;2022-10-31T00:02:54;32.03;;;14.80;;
19251;SDS011;9760;50.944;5.304;2022-10-31T00:05:20;35.90;;;15.20;;
19251;SDS011;9760;50.944;5.304;2022-10-31T00:07:46;42.13;;;20.10;;
19251;SDS011;9760;50.944;5.304;2022-10-31T00:10:11;34.63;;;14.93;;
19251;SDS011;9760;50.944;5.304;2022-10-31T00:12:37;38.10;;;16.43;;
19251;SDS011;9760;50.944;5.304;2022-10-31T00:15:03;35.00;;;15.73;;
19251;SDS011;9760;50.944;5.304;2022-10-31T00:17:28;31.33;;;14.57;;
19251;SDS011;9760;50.944;5.304;2022-10-31T00:19:54;28.37;;;14.57;;
19251;SDS011;9760;50.944;5.304;2022-10-31T00:22:20;33.90;;;14.93;;
19251;SDS011;9760;50.944;5.304;2022-10-31T00:24:45;42.90;;;17.33;;
19251;SDS011;9760;50.944;5.304;2022-10-31T00:27:11;31.07;;;16.40;;
19251;SDS011;9760;50.944;5.304;2022-10-31T00:29:36;35.33;;;16.07;;
19251;SDS011;9760;50.944;5.304;2022-10-31T00:32:02;37.70;;;15.73;;
19251;SDS011;9760;50.944;5.304;2022-10-31T00:34:27;29.63;;;15.13;;
19251;SDS011;9760;50.944;5.304;2022-10-31T00:36:53;36.20;;;16.30;;
19251;SDS011;9760;50.944;5.304;2022-10-31T00:39:19;41.00;;;17.50;;
19251;SDS011;9760;50.944;5.304;2022-10-31T00:41:44;37.23;;;16.93;;
19251;SDS011;9760;50.944;5.304;2022-10-31T00:44:10;38.67;;;18.57;;
19251;SDS011;9760;50.944;5.304;2022-10-31T00:46:35;42.53;;;18.83;;
19251;SDS011;9760;50.944;5.304;2022-10-31T00:49:01;50.30;;;19.90;;
19251;SDS011;9760;50.944;5.304;2022-10-31T00:51:27;47.73;;;18.73;;
19251;SDS011;9760;50.944;5.304;2022-10-31T00:53:52;44.40;;;19.77;;
19251;SDS011;9760;50.944;5.304;2022-10-31T00:56:18;38.77;;;19.27;;
19251;SDS011;9760;50.944;5.304;2022-10-31T00:58:43;50.63;;;19.53;;
19251;SDS011;9760;50.944;5.304;2022-10-31T01:01:09;41.97;;;20.77;;
19251;SDS011;9760;50.944;5.304;2022-10-31T01:03:34;45.93;;;20.43;;
19251;SDS011;9760;50.944;5.304;2022-10-31T01:06:02;47.07;;;19.93;;
19251;SDS011;9760;50.944;5.304;2022-10-31T01:08:29;41.30;;;19.47;;
19251;SDS011;9760;50.944;5.304;2022-10-31T01:11:01;43.67;;;20.53;;
19251;SDS011;9760;50.944;5.304;2022-10-31T01:13:29;44.87;;;19.67;;
19251;SDS011;9760;50.944;5.304;2022-10-31T01:15:55;46.23;;;20.43;;
19251;SDS011;9760;50.944;5.304;2022-10-31T01:18:22;41.07;;;19.30;;
19251;SDS011;9760;50.944;5.304;2022-10-31T01:20:56;40.57;;;17.37;;
19251;SDS011;9760;50.944;5.304;2022-10-31T01:23:26;43.53;;;18.67;;
19251;SDS011;9760;50.944;5.304;2022-10-31T01:28:35;34.80;;;17.50;;
19251;SDS011;9760;50.944;5.304;2022-10-31T01:31:04;38.40;;;17.77;;
19251;SDS011;9760;50.944;5.304;2022-10-31T01:33:32;46.90;;;18.63;;
19251;SDS011;9760;50.944;5.304;2022-10-31T01:35:59;34.00;;;17.53;;
19251;SDS011;9760;50.944;5.304;2022-10-31T01:38:25;43.47;;;17.80;;
19251;SDS011;9760;50.944;5.304;2022-10-31T01:40:51;33.70;;;17.10;;
19251;SDS011;9760;50.944;5.304;2022-10-31T01:43:18;35.27;;;16.90;;
19251;SDS011;9760;50.944;5.304;2022-10-31T01:45:45;44.23;;;17.87;;
19251;SDS011;9760;50.944;5.304;2022-10-31T01:48:15;36.67;;;17.20;;
19251;SDS011;9760;50.944;5.304;2022-10-31T01:50:44;36.83;;;16.60;;
19251;SDS011;9760;50.944;5.304;2022-10-31T01:53:13;43.67;;;17.30;;
19251;SDS011;9760;50.944;5.304;2022-10-31T01:55:41;39.27;;;16.27;;
19251;SDS011;9760;50.944;5.304;2022-10-31T01:58:20;34.83;;;16.90;;
19251;SDS011;9760;50.944;5.304;2022-10-31T02:00:50;39.43;;;16.43;;
19251;SDS011;9760;50.944;5.304;2022-10-31T02:03:20;38.73;;;16.50;;
19251;SDS011;9760;50.944;5.304;2022-10-31T02:05:48;42.43;;;18.47;;
19251;SDS011;9760;50.944;5.304;2022-10-31T02:08:30;42.27;;;19.33;;
19251;SDS011;9760;50.944;5.304;2022-10-31T02:10:58;48.27;;;17.17;;
19251;SDS011;9760;50.944;5.304;2022-10-31T02:13:25;35.50;;;16.83;;
19251;SDS011;9760;50.944;5.304;2022-10-31T02:15:53;35.93;;;16.37;;
19251;SDS011;9760;50.944;5.304;2022-10-31T02:18:21;38.23;;;17.63;;
19251;SDS011;9760;50.944;5.304;2022-10-31T02:20:55;35.60;;;17.10;;
19251;SDS011;9760;50.944;5.304;2022-10-31T02:26:28;39.50;;;16.50;;
19251;SDS011;9760;50.944;5.304;2022-10-31T02:31:58;39.03;;;16.73;;
19251;SDS011;9760;50.944;5.304;2022-10-31T02:37:36;36.37;;;16.50;;
19251;SDS011;9760;50.944;5.304;2022-10-31T02:40:19;35.23;;;15.50;;
19251;SDS011;9760;50.944;5.304;2022-10-31T02:47:50;35.30;;;16.17;;
19251;SDS011;9760;50.944;5.304;2022-10-31T02:50:21;41.53;;;15.93;;
19251;SDS011;9760;50.944;5.304;2022-10-31T02:52:51;38.40;;;16.47;;
19251;SDS011;9760;50.944;5.304;2022-10-31T02:57:52;34.97;;;16.20;;
19251;SDS011;9760;50.944;5.304;2022-10-31T03:00:24;41.97;;;16.10;;
19251;SDS011;9760;50.944;5.304;2022-10-31T03:11:15;35.87;;;16.07;;
19251;SDS011;9760;50.944;5.304;2022-10-31T03:13:51;38.53;;;16.30;;
19251;SDS011;9760;50.944;5.304;2022-10-31T03:18:59;37.37;;;15.73;;
19251;SDS011;9760;50.944;5.304;2022-10-31T03:21:35;37.33;;;15.43;;
19251;SDS011;9760;50.944;5.304;2022-10-31T03:24:22;41.23;;;15.67;;
19251;SDS011;9760;50.944;5.304;2022-10-31T03:26:52;33.23;;;15.60;;
19251;SDS011;9760;50.944;5.304;2022-10-31T03:29:22;39.97;;;15.90;;
19251;SDS011;9760;50.944;5.304;2022-10-31T03:31:54;29.50;;;14.73;;
19251;SDS011;9760;50.944;5.304;2022-10-31T03:34:24;33.10;;;15.60;;
19251;SDS011;9760;50.944;5.304;2022-10-31T03:36:52;33.70;;;15.93;;
19251;SDS011;9760;50.944;5.304;2022-10-31T03:39:21;41.90;;;15.83;;
19251;SDS011;9760;50.944;5.304;2022-10-31T03:41:49;31.93;;;14.80;;
19251;SDS011;9760;50.944;5.304;2022-10-31T03:44:25;31.43;;;14.13;;
19251;SDS011;9760;50.944;5.304;2022-10-31T03:46:54;26.73;;;14.03;;
19251;SDS011;9760;50.944;5.304;2022-10-31T03:49:20;35.90;;;15.43;;
19251;SDS011;9760;50.944;5.304;2022-10-31T03:51:52;36.53;;;15.37;;
19251;SDS011;9760;50.944;5.304;2022-10-31T03:54:42;33.83;;;14.97;;
19251;SDS011;9760;50.944;5.304;2022-10-31T03:57:24;28.80;;;14.10;;
19251;SDS011;9760;50.944;5.304;2022-10-31T04:00:05;26.47;;;14.50;;
19251;SDS011;9760;50.944;5.304;2022-10-31T04:02:32;21.70;;;12.80;;
19251;SDS011;9760;50.944;5.304;2022-10-31T04:05:00;30.70;;;14.67;;
19251;SDS011;9760;50.944;5.304;2022-10-31T04:07:27;29.77;;;14.63;;
19251;SDS011;9760;50.944;5.304;2022-10-31T04:09:55;33.37;;;14.03;;
19251;SDS011;9760;50.944;5.304;2022-10-31T04:12:22;37.90;;;15.10;;
19251;SDS011;9760;50.944;5.304;2022-10-31T04:14:50;28.13;;;13.43;;
19251;SDS011;9760;50.944;5.304;2022-10-31T04:17:18;28.87;;;14.83;;
19251;SDS011;9760;50.944;5.304;2022-10-31T04:19:46;29.53;;;14.27;;
19251;SDS011;9760;50.944;5.304;2022-10-31T04:22:11;28.07;;;13.07;;
19251;SDS011;9760;50.944;5.304;2022-10-31T04:24:38;29.03;;;14.07;;
19251;SDS011;9760;50.944;5.304;2022-10-31T04:27:05;28.50;;;13.80;;
19251;SDS011;9760;50.944;5.304;2022-10-31T04:29:31;33.90;;;14.60;;
19251;SDS011;9760;50.944;5.304;2022-10-31T04:31:56;31.17;;;13.77;;
19251;SDS011;9760;50.944;5.304;2022-10-31T04:34:22;30.50;;;13.47;;
19251;SDS011;9760;50.944;5.304;2022-10-31T04:36:48;34.23;;;14.80;;
19251;SDS011;9760;50.944;5.304;2022-10-31T04:39:13;35.70;;;15.73;;
19251;SDS011;9760;50.944;5.304;2022-10-31T04:41:39;29.37;;;14.17;;
19251;SDS011;9760;50.944;5.304;2022-10-31T04:44:04;36.77;;;15.50;;
19251;SDS011;9760;50.944;5.304;2022-10-31T04:46:30;29.67;;;15.10;;
19251;SDS011;9760;50.944;5.304;2022-10-31T04:48:56;33.70;;;14.77;;
19251;SDS011;9760;50.944;5.304;2022-10-31T04:51:21;35.47;;;15.93;;
19251;SDS011;9760;50.944;5.304;2022-10-31T04:53:47;35.23;;;15.90;;
19251;SDS011;9760;50.944;5.304;2022-10-31T04:56:13;31.27;;;14.67;;
19251;SDS011;9760;50.944;5.304;2022-10-31T04:58:38;28.63;;;14.30;;
19251;SDS011;9760;50.944;5.304;2022-10-31T05:01:04;28.73;;;14.17;;
19251;SDS011;9760;50.944;5.304;2022-10-31T05:03:29;40.57;;;15.47;;
19251;SDS011;9760;50.944;5.304;2022-10-31T05:05:55;31.17;;;14.23;;
19251;SDS011;9760;50.944;5.304;2022-10-31T05:08:21;34.40;;;14.30;;
19251;SDS011;9760;50.944;5.304;2022-10-31T05:10:46;32.03;;;14.63;;
19251;SDS011;9760;50.944;5.304;2022-10-31T05:13:12;28.67;;;14.30;;
19251;SDS011;9760;50.944;5.304;2022-10-31T05:15:39;29.27;;;13.77;;
19251;SDS011;9760;50.944;5.304;2022-10-31T05:18:05;34.00;;;13.90;;
19251;SDS011;9760;50.944;5.304;2022-10-31T05:20:31;39.53;;;14.03;;
19251;SDS011;9760;50.944;5.304;2022-10-31T05:22:57;29.73;;;13.60;;
19251;SDS011;9760;50.944;5.304;2022-10-31T05:25:24;26.70;;;13.23;;
19251;SDS011;9760;50.944;5.304;2022-10-31T05:27:52;28.57;;;12.60;;
19251;SDS011;9760;50.944;5.304;2022-10-31T05:30:20;29.27;;;14.57;;
19251;SDS011;9760;50.944;5.304;2022-10-31T05:32:50;35.13;;;13.37;;
19251;SDS011;9760;50.944;5.304;2022-10-31T05:35:34;34.40;;;14.73;;
19251;SDS011;9760;50.944;5.304;2022-10-31T05:38:00;38.30;;;15.17;;
19251;SDS011;9760;50.944;5.304;2022-10-31T05:40:26;34.97;;;14.97;;
19251;SDS011;9760;50.944;5.304;2022-10-31T05:42:52;33.37;;;15.47;;
19251;SDS011;9760;50.944;5.304;2022-10-31T05:45:20;36.80;;;14.60;;
19251;SDS011;9760;50.944;5.304;2022-10-31T05:48:04;34.57;;;14.77;;
19251;SDS011;9760;50.944;5.304;2022-10-31T05:50:30;30.50;;;14.87;;
19251;SDS011;9760;50.944;5.304;2022-10-31T05:52:58;41.53;;;14.47;;
19251;SDS011;9760;50.944;5.304;2022-10-31T05:55:25;32.77;;;14.10;;
19251;SDS011;9760;50.944;5.304;2022-10-31T05:57:51;27.93;;;13.70;;
19251;SDS011;9760;50.944;5.304;2022-10-31T06:00:18;31.00;;;14.07;;
19251;SDS011;9760;50.944;5.304;2022-10-31T06:02:44;32.33;;;14.60;;
19251;SDS011;9760;50.944;5.304;2022-10-31T06:05:09;39.83;;;15.43;;
19251;SDS011;9760;50.944;5.304;2022-10-31T06:07:35;34.37;;;16.30;;
19251;SDS011;9760;50.944;5.304;2022-10-31T06:10:03;30.90;;;14.10;;
19251;SDS011;9760;50.944;5.304;2022-10-31T06:12:30;41.30;;;16.77;;
19251;SDS011;9760;50.944;5.304;2022-10-31T06:14:56;36.30;;;14.60;;
19251;SDS011;9760;50.944;5.304;2022-10-31T06:17:21;32.13;;;15.10;;
19251;SDS011;9760;50.944;5.304;2022-10-31T06:19:47;38.10;;;15.90;;
19251;SDS011;9760;50.944;5.304;2022-10-31T06:22:13;34.40;;;14.43;;
19251;SDS011;9760;50.944;5.304;2022-10-31T06:24:38;34.57;;;14.80;;
19251;SDS011;9760;50.944;5.304;2022-10-31T06:27:04;39.43;;;15.03;;
19251;SDS011;9760;50.944;5.304;2022-10-31T06:29:30;36.33;;;15.27;;
19251;SDS011;9760;50.944;5.304;2022-10-31T06:31:56;41.27;;;15.00;;
19251;SDS011;9760;50.944;5.304;2022-10-31T06:34:22;31.13;;;14.73;;
19251;SDS011;9760;50.944;5.304;2022-10-31T06:36:47;29.93;;;14.23;;
19251;SDS011;9760;50.944;5.304;2022-10-31T06:39:14;37.90;;;14.60;;
19251;SDS011;9760;50.944;5.304;2022-10-31T06:41:39;37.73;;;15.60;;
19251;SDS011;9760;50.944;5.304;2022-10-31T06:44:06;37.90;;;14.77;;
19251;SDS011;9760;50.944;5.304;2022-10-31T06:46:32;36.83;;;14.80;;
19251;SDS011;9760;50.944;5.304;2022-10-31T06:48:58;30.47;;;14.27;;
19251;SDS011;9760;50.944;5.304;2022-10-31T06:51:24;29.67;;;13.67;;
19251;SDS011;9760;50.944;5.304;2022-10-31T06:53:49;30.13;;;14.17;;
19251;SDS011;9760;50.944;5.304;2022-10-31T06:56:15;31.50;;;15.03;;
19251;SDS011;9760;50.944;5.304;2022-10-31T06:58:41;32.73;;;14.57;;
19251;SDS011;9760;50.944;5.304;2022-10-31T07:01:06;33.03;;;14.33;;
19251;SDS011;9760;50.944;5.304;2022-10-31T07:03:32;35.00;;;15.07;;
19251;SDS011;9760;50.944;5.304;2022-10-31T07:05:57;33.63;;;15.13;;
19251;SDS011;9760;50.944;5.304;2022-10-31T07:08:23;27.43;;;14.00;;
19251;SDS011;9760;50.944;5.304;2022-10-31T07:10:53;35.60;;;15.70;;
19251;SDS011;9760;50.944;5.304;2022-10-31T07:13:21;35.87;;;14.50;;
19251;SDS011;9760;50.944;5.304;2022-10-31T07:15:50;30.13;;;14.23;;
19251;SDS011;9760;50.944;5.304;2022-10-31T07:18:18;33.03;;;13.80;;
19251;SDS011;9760;50.944;5.304;2022-10-31T07:20:44;31.47;;;15.23;;
19251;SDS011;9760;50.944;5.304;2022-10-31T07:23:10;37.23;;;16.33;;
19251;SDS011;9760;50.944;5.304;2022-10-31T07:25:36;29.30;;;14.30;;
19251;SDS011;9760;50.944;5.304;2022-10-31T07:28:05;34.80;;;15.53;;
19251;SDS011;9760;50.944;5.304;2022-10-31T07:30:31;35.23;;;15.37;;
19251;SDS011;9760;50.944;5.304;2022-10-31T07:32:57;34.93;;;16.20;;
19251;SDS011;9760;50.944;5.304;2022-10-31T07:35:24;44.70;;;16.20;;
19251;SDS011;9760;50.944;5.304;2022-10-31T07:37:51;34.70;;;15.77;;
19251;SDS011;9760;50.944;5.304;2022-10-31T07:40:18;32.17;;;16.23;;
19251;SDS011;9760;50.944;5.304;2022-10-31T07:42:48;40.93;;;16.03;;
19251;SDS011;9760;50.944;5.304;2022-10-31T07:45:18;35.60;;;14.63;;
19251;SDS011;9760;50.944;5.304;2022-10-31T07:47:46;42.17;;;14.30;;
19251;SDS011;9760;50.944;5.304;2022-10-31T07:50:17;37.90;;;14.63;;
19251;SDS011;9760;50.944;5.304;2022-10-31T07:52:44;38.30;;;14.10;;
19251;SDS011;9760;50.944;5.304;2022-10-31T07:55:10;36.33;;;14.50;;
19251;SDS011;9760;50.944;5.304;2022-10-31T07:57:36;31.13;;;13.50;;
19251;SDS011;9760;50.944;5.304;2022-10-31T08:00:05;46.53;;;20.03;;
19251;SDS011;9760;50.944;5.304;2022-10-31T08:02:33;40.30;;;18.63;;
19251;SDS011;9760;50.944;5.304;2022-10-31T08:05:00;28.13;;;12.43;;
19251;SDS011;9760;50.944;5.304;2022-10-31T08:07:27;34.10;;;13.63;;
19251;SDS011;9760;50.944;5.304;2022-10-31T08:09:53;39.53;;;13.63;;
19251;SDS011;9760;50.944;5.304;2022-10-31T08:12:19;24.30;;;12.53;;
19251;SDS011;9760;50.944;5.304;2022-10-31T08:14:45;39.73;;;13.83;;
19251;SDS011;9760;50.944;5.304;2022-10-31T08:17:11;28.37;;;13.23;;
19251;SDS011;9760;50.944;5.304;2022-10-31T08:19:36;34.47;;;13.30;;
19251;SDS011;9760;50.944;5.304;2022-10-31T08:22:02;31.67;;;14.50;;
19251;SDS011;9760;50.944;5.304;2022-10-31T08:24:28;34.33;;;15.10;;
19251;SDS011;9760;50.944;5.304;2022-10-31T08:26:53;31.80;;;14.20;;
19251;SDS011;9760;50.944;5.304;2022-10-31T08:29:19;38.33;;;14.07;;
19251;SDS011;9760;50.944;5.304;2022-10-31T08:31:44;31.23;;;14.83;;
19251;SDS011;9760;50.944;5.304;2022-10-31T08:34:10;37.30;;;14.43;;
19251;SDS011;9760;50.944;5.304;2022-10-31T08:36:36;36.17;;;14.73;;
19251;SDS011;9760;50.944;5.304;2022-10-31T08:39:01;32.03;;;12.90;;
19251;SDS011;9760;50.944;5.304;2022-10-31T08:41:27;41.70;;;14.10;;
19251;SDS011;9760;50.944;5.304;2022-10-31T08:43:53;32.37;;;13.57;;
19251;SDS011;9760;50.944;5.304;2022-10-31T08:46:19;35.97;;;14.20;;
19251;SDS011;9760;50.944;5.304;2022-10-31T08:48:47;36.17;;;15.00;;
19251;SDS011;9760;50.944;5.304;2022-10-31T08:51:13;44.57;;;15.83;;
19251;SDS011;9760;50.944;5.304;2022-10-31T08:53:39;40.40;;;16.10;;
19251;SDS011;9760;50.944;5.304;2022-10-31T08:56:05;41.40;;;16.37;;
19251;SDS011;9760;50.944;5.304;2022-10-31T08:58:31;31.20;;;16.13;;
19251;SDS011;9760;50.944;5.304;2022-10-31T09:00:58;48.23;;;16.10;;
19251;SDS011;9760;50.944;5.304;2022-10-31T09:03:26;37.40;;;16.27;;
19251;SDS011;9760;50.944;5.304;2022-10-31T09:05:56;35.57;;;16.77;;
19251;SDS011;9760;50.944;5.304;2022-10-31T09:08:25;38.13;;;17.30;;
19251;SDS011;9760;50.944;5.304;2022-10-31T09:10:51;46.23;;;16.83;;
19251;SDS011;9760;50.944;5.304;2022-10-31T09:13:18;39.03;;;16.47;;
19251;SDS011;9760;50.944;5.304;2022-10-31T09:15:45;37.50;;;15.53;;
19251;SDS011;9760;50.944;5.304;2022-10-31T09:18:13;38.00;;;16.23;;
19251;SDS011;9760;50.944;5.304;2022-10-31T09:20:41;34.97;;;15.53;;
19251;SDS011;9760;50.944;5.304;2022-10-31T09:23:12;38.17;;;16.77;;
19251;SDS011;9760;50.944;5.304;2022-10-31T09:25:39;45.50;;;17.57;;
19251;SDS011;9760;50.944;5.304;2022-10-31T09:28:06;46.60;;;16.90;;
19251;SDS011;9760;50.944;5.304;2022-10-31T09:30:34;38.97;;;15.37;;
19251;SDS011;9760;50.944;5.304;2022-10-31T09:33:01;44.30;;;16.97;;
19251;SDS011;9760;50.944;5.304;2022-10-31T09:35:31;39.77;;;15.73;;
19251;SDS011;9760;50.944;5.304;2022-10-31T09:37:57;40.57;;;16.20;;
19251;SDS011;9760;50.944;5.304;2022-10-31T09:40:25;34.67;;;16.00;;
19251;SDS011;9760;50.944;5.304;2022-10-31T09:42:59;38.37;;;16.80;;
19251;SDS011;9760;50.944;5.304;2022-10-31T09:48:37;36.03;;;15.60;;
19251;SDS011;9760;50.944;5.304;2022-10-31T09:51:06;36.97;;;15.10;;
19251;SDS011;9760;50.944;5.304;2022-10-31T09:53:42;36.57;;;15.87;;
19251;SDS011;9760;50.944;5.304;2022-10-31T09:56:20;42.40;;;15.90;;
19251;SDS011;9760;50.944;5.304;2022-10-31T09:58:56;38.20;;;16.03;;
19251;SDS011;9760;50.944;5.304;2022-10-31T10:04:16;37.77;;;15.20;;
19251;SDS011;9760;50.944;5.304;2022-10-31T10:07:01;36.57;;;15.70;;
19251;SDS011;9760;50.944;5.304;2022-10-31T10:09:29;40.40;;;16.83;;
19251;SDS011;9760;50.944;5.304;2022-10-31T10:14:43;40.07;;;16.00;;
19251;SDS011;9760;50.944;5.304;2022-10-31T10:17:20;37.20;;;15.30;;
19251;SDS011;9760;50.944;5.304;2022-10-31T10:23:10;31.73;;;13.63;;
19251;SDS011;9760;50.944;5.304;2022-10-31T10:25:43;39.57;;;15.10;;
19251;SDS011;9760;50.944;5.304;2022-10-31T10:28:32;42.57;;;15.67;;
19251;SDS011;9760;50.944;5.304;2022-10-31T10:31:07;32.13;;;14.40;;
19251;SDS011;9760;50.944;5.304;2022-10-31T10:33:59;31.53;;;14.00;;
19251;SDS011;9760;50.944;5.304;2022-10-31T10:39:18;34.40;;;14.43;;
19251;SDS011;9760;50.944;5.304;2022-10-31T10:41:48;32.43;;;13.37;;
19251;SDS011;9760;50.944;5.304;2022-10-31T10:44:33;32.07;;;13.10;;
19251;SDS011;9760;50.944;5.304;2022-10-31T10:47:23;34.83;;;13.67;;
19251;SDS011;9760;50.944;5.304;2022-10-31T10:50:02;32.73;;;13.87;;
19251;SDS011;9760;50.944;5.304;2022-10-31T10:58:01;32.70;;;13.10;;
19251;SDS011;9760;50.944;5.304;2022-10-31T11:00:43;25.73;;;12.07;;
19251;SDS011;9760;50.944;5.304;2022-10-31T11:03:11;26.80;;;12.27;;
19251;SDS011;9760;50.944;5.304;2022-10-31T11:08:08;34.40;;;12.17;;
19251;SDS011;9760;50.944;5.304;2022-10-31T11:10:34;33.67;;;12.57;;
19251;SDS011;9760;50.944;5.304;2022-10-31T11:15:33;27.93;;;11.20;;
19251;SDS011;9760;50.944;5.304;2022-10-31T11:18:04;29.33;;;12.23;;
19251;SDS011;9760;50.944;5.304;2022-10-31T11:20:31;33.67;;;10.77;;
19251;SDS011;9760;50.944;5.304;2022-10-31T11:23:01;24.67;;;11.43;;
19251;SDS011;9760;50.944;5.304;2022-10-31T11:25:47;32.60;;;11.37;;
19251;SDS011;9760;50.944;5.304;2022-10-31T11:28:25;30.17;;;11.60;;
19251;SDS011;9760;50.944;5.304;2022-10-31T11:30:55;34.43;;;11.40;;
19251;SDS011;9760;50.944;5.304;2022-10-31T11:33:58;22.13;;;10.37;;
19251;SDS011;9760;50.944;5.304;2022-10-31T11:36:24;34.27;;;11.30;;
19251;SDS011;9760;50.944;5.304;2022-10-31T11:38:55;30.43;;;11.20;;
19251;SDS011;9760;50.944;5.304;2022-10-31T11:41:30;27.70;;;10.57;;
19251;SDS011;9760;50.944;5.304;2022-10-31T11:43:58;39.07;;;10.87;;
19251;SDS011;9760;50.944;5.304;2022-10-31T11:46:37;22.57;;;10.40;;
19251;SDS011;9760;50.944;5.304;2022-10-31T11:49:05;18.27;;;9.23;;
19251;SDS011;9760;50.944;5.304;2022-10-31T11:51:40;32.07;;;10.53;;
19251;SDS011;9760;50.944;5.304;2022-10-31T11:54:06;23.83;;;9.33;;
19251;SDS011;9760;50.944;5.304;2022-10-31T11:56:48;26.93;;;10.10;;
19251;SDS011;9760;50.944;5.304;2022-10-31T11:59:32;23.00;;;8.73;;
19251;SDS011;9760;50.944;5.304;2022-10-31T12:01:58;19.60;;;9.20;;
19251;SDS011;9760;50.944;5.304;2022-10-31T12:04:37;27.60;;;9.07;;
19251;SDS011;9760;50.944;5.304;2022-10-31T12:07:07;26.27;;;8.87;;
19251;SDS011;9760;50.944;5.304;2022-10-31T12:09:33;27.37;;;9.77;;
19251;SDS011;9760;50.944;5.304;2022-10-31T12:17:06;25.60;;;9.57;;
19251;SDS011;9760;50.944;5.304;2022-10-31T12:22:33;25.67;;;9.73;;
19251;SDS011;9760;50.944;5.304;2022-10-31T12:33:40;28.20;;;9.40;;
19251;SDS011;9760;50.944;5.304;2022-10-31T12:36:32;24.97;;;8.90;;
19251;SDS011;9760;50.944;5.304;2022-10-31T12:44:55;19.07;;;7.63;;
19251;SDS011;9760;50.944;5.304;2022-10-31T12:47:34;19.40;;;8.30;;
19251;SDS011;9760;50.944;5.304;2022-10-31T12:53:00;19.13;;;8.53;;
19251;SDS011;9760;50.944;5.304;2022-10-31T12:58:25;24.80;;;7.40;;
19251;SDS011;9760;50.944;5.304;2022-10-31T13:01:01;18.57;;;7.90;;
19251;SDS011;9760;50.944;5.304;2022-10-31T13:03:44;27.20;;;8.20;;
19251;SDS011;9760;50.944;5.304;2022-10-31T13:06:24;24.40;;;7.67;;
19251;SDS011;9760;50.944;5.304;2022-10-31T13:08:57;26.90;;;7.80;;
19251;SDS011;9760;50.944;5.304;2022-10-31T13:11:27;25.60;;;8.27;;
19251;SDS011;9760;50.944;5.304;2022-10-31T13:14:29;28.40;;;7.30;;
19251;SDS011;9760;50.944;5.304;2022-10-31T13:17:15;19.70;;;7.53;;
19251;SDS011;9760;50.944;5.304;2022-10-31T13:19:47;25.30;;;9.70;;
19251;SDS011;9760;50.944;5.304;2022-10-31T13:22:18;22.53;;;7.50;;
19251;SDS011;9760;50.944;5.304;2022-10-31T13:24:57;23.17;;;8.60;;
19251;SDS011;9760;50.944;5.304;2022-10-31T13:30:19;17.33;;;7.27;;
19251;SDS011;9760;50.944;5.304;2022-10-31T13:32:49;24.57;;;7.87;;
19251;SDS011;9760;50.944;5.304;2022-10-31T13:36:10;23.50;;;7.90;;
19251;SDS011;9760;50.944;5.304;2022-10-31T13:49:00;32.70;;;8.30;;
19251;SDS011;9760;50.944;5.304;2022-10-31T13:51:26;27.27;;;9.43;;
19251;SDS011;9760;50.944;5.304;2022-10-31T13:53:58;24.87;;;9.40;;
19251;SDS011;9760;50.944;5.304;2022-10-31T13:56:26;29.23;;;9.23;;
19251;SDS011;9760;50.944;5.304;2022-10-31T14:01:36;23.67;;;8.97;;
19251;SDS011;9760;50.944;5.304;2022-10-31T14:04:16;22.90;;;9.00;;
19251;SDS011;9760;50.944;5.304;2022-10-31T14:06:53;26.40;;;9.77;;
19251;SDS011;9760;50.944;5.304;2022-10-31T14:11:59;27.33;;;10.20;;
19251;SDS011;9760;50.944;5.304;2022-10-31T14:14:47;26.03;;;9.03;;
19251;SDS011;9760;50.944;5.304;2022-10-31T14:17:17;29.70;;;11.07;;
19251;SDS011;9760;50.944;5.304;2022-10-31T14:20:32;29.17;;;9.63;;
19251;SDS011;9760;50.944;5.304;2022-10-31T14:22:34;32.27;;;10.40;;
19251;SDS011;9760;50.944;5.304;2022-10-31T14:25:25;29.13;;;10.47;;
19251;SDS011;9760;50.944;5.304;2022-10-31T14:27:57;23.80;;;10.43;;
19251;SDS011;9760;50.944;5.304;2022-10-31T14:30:24;25.17;;;10.27;;
19251;SDS011;9760;50.944;5.304;2022-10-31T14:32:52;28.13;;;9.47;;
19251;SDS011;9760;50.944;5.304;2022-10-31T14:52:49;19.47;;;8.77;;
19251;SDS011;9760;50.944;5.304;2022-10-31T14:55:17;32.30;;;9.40;;
19251;SDS011;9760;50.944;5.304;2022-10-31T14:57:49;29.97;;;9.43;;
19251;SDS011;9760;50.944;5.304;2022-10-31T15:00:24;29.30;;;9.13;;
19251;SDS011;9760;50.944;5.304;2022-10-31T15:05:42;22.60;;;9.03;;
19251;SDS011;9760;50.944;5.304;2022-10-31T15:10:56;20.77;;;8.33;;
19251;SDS011;9760;50.944;5.304;2022-10-31T15:13:22;23.50;;;8.50;;
19251;SDS011;9760;50.944;5.304;2022-10-31T15:15:49;27.87;;;8.60;;
19251;SDS011;9760;50.944;5.304;2022-10-31T15:18:19;23.40;;;8.13;;
19251;SDS011;9760;50.944;5.304;2022-10-31T15:20:50;38.53;;;8.73;;
19251;SDS011;9760;50.944;5.304;2022-10-31T15:23:24;21.33;;;8.00;;
19251;SDS011;9760;50.944;5.304;2022-10-31T15:25:59;21.13;;;8.07;;
19251;SDS011;9760;50.944;5.304;2022-10-31T15:28:25;20.03;;;8.07;;
19251;SDS011;9760;50.944;5.304;2022-10-31T15:30:58;19.47;;;7.90;;
19251;SDS011;9760;50.944;5.304;2022-10-31T15:35:58;26.40;;;8.40;;
19251;SDS011;9760;50.944;5.304;2022-10-31T15:38:26;27.57;;;8.53;;
19251;SDS011;9760;50.944;5.304;2022-10-31T15:40:53;33.10;;;8.57;;
19251;SDS011;9760;50.944;5.304;2022-10-31T15:43:25;24.00;;;8.17;;
19251;SDS011;9760;50.944;5.304;2022-10-31T15:45:58;22.80;;;8.23;;
19251;SDS011;9760;50.944;5.304;2022-10-31T15:48:25;26.47;;;8.67;;
19251;SDS011;9760;50.944;5.304;2022-10-31T15:50:55;26.23;;;7.77;;
19251;SDS011;9760;50.944;5.304;2022-10-31T15:56:00;27.27;;;7.17;;
19251;SDS011;9760;50.944;5.304;2022-10-31T15:58:28;21.17;;;7.00;;
19251;SDS011;9760;50.944;5.304;2022-10-31T16:01:05;17.03;;;5.97;;
19251;SDS011;9760;50.944;5.304;2022-10-31T16:03:43;18.97;;;4.93;;
19251;SDS011;9760;50.944;5.304;2022-10-31T16:06:21;12.63;;;4.80;;
19251;SDS011;9760;50.944;5.304;2022-10-31T16:08:48;12.67;;;3.63;;
19251;SDS011;9760;50.944;5.304;2022-10-31T16:16:32;12.30;;;3.53;;
19251;SDS011;9760;50.944;5.304;2022-10-31T16:19:00;14.50;;;3.57;;
19251;SDS011;9760;50.944;5.304;2022-10-31T16:21:29;22.73;;;4.50;;
19251;SDS011;9760;50.944;5.304;2022-10-31T16:24:02;12.37;;;3.60;;
19251;SDS011;9760;50.944;5.304;2022-10-31T16:26:40;13.07;;;3.20;;
19251;SDS011;9760;50.944;5.304;2022-10-31T16:29:22;10.57;;;3.20;;
19251;SDS011;9760;50.944;5.304;2022-10-31T16:31:53;7.57;;;3.37;;
19251;SDS011;9760;50.944;5.304;2022-10-31T16:34:22;10.97;;;3.10;;
19251;SDS011;9760;50.944;5.304;2022-10-31T16:36:48;7.70;;;3.03;;
19251;SDS011;9760;50.944;5.304;2022-10-31T16:39:14;8.93;;;3.80;;
19251;SDS011;9760;50.944;5.304;2022-10-31T16:41:42;14.00;;;3.30;;
19251;SDS011;9760;50.944;5.304;2022-10-31T16:44:28;8.03;;;3.20;;
19251;SDS011;9760;50.944;5.304;2022-10-31T16:47:07;12.67;;;3.20;;
19251;SDS011;9760;50.944;5.304;2022-10-31T16:49:36;14.27;;;3.27;;
19251;SDS011;9760;50.944;5.304;2022-10-31T16:52:02;9.33;;;3.07;;
19251;SDS011;9760;50.944;5.304;2022-10-31T16:54:28;18.33;;;3.93;;
19251;SDS011;9760;50.944;5.304;2022-10-31T16:56:54;10.00;;;2.73;;
19251;SDS011;9760;50.944;5.304;2022-10-31T16:59:20;10.13;;;3.10;;
19251;SDS011;9760;50.944;5.304;2022-10-31T17:01:46;10.80;;;3.73;;
19251;SDS011;9760;50.944;5.304;2022-10-31T17:04:13;9.10;;;3.37;;
19251;SDS011;9760;50.944;5.304;2022-10-31T17:06:39;15.80;;;3.77;;
19251;SDS011;9760;50.944;5.304;2022-10-31T17:09:06;13.27;;;3.57;;